Time;durP1;ratioP1;P1;durP2;ratioP2;P2;SDS_P1;SDS_P2;PMS_P1;PMS_P2;Temp;Humidity;BMP_temperature;BMP_pressure;BME280_temperature;BME280_humidity;BME280_pressure;Samples;Min_cycle;Max_cycle;Signal;HPM_P1;HPM_P2
2022/10/05 00:03:57;;;;;;;6.60;5.20;;;18.80;81.10;;;;;;10793658;33;20336;-77
2022/10/05 00:10:00;;;;;;;7.50;5.70;;;18.80;81.10;;;;;;10793441;33;20419;-78
2022/10/05 00:16:16;;;;;;;8.27;6.82;;;18.70;81.30;;;;;;10793158;33;20340;-77
2022/10/05 00:22:38;;;;;;;9.70;6.20;;;18.70;81.40;;;;;;10793402;33;20064;-77
2022/10/05 00:28:41;;;;;;;8.32;5.75;;;18.70;81.40;;;;;;10793171;33;20439;-78
2022/10/05 00:34:45;;;;;;;7.68;5.72;;;18.70;81.40;;;;;;10798731;33;20020;-77
2022/10/05 00:41:03;;;;;;;7.97;5.47;;;18.60;81.30;;;;;;10800386;33;20012;-77
2022/10/05 00:47:10;;;;;;;7.05;5.30;;;18.60;81.50;;;;;;10797060;33;20020;-78
2022/10/05 00:53:12;;;;;;;7.78;6.12;;;18.70;81.50;;;;;;10799753;33;20032;-78
2022/10/05 00:59:28;;;;;;;9.18;6.57;;;18.60;81.50;;;;;;10797042;33;20016;-78
2022/10/05 01:05:38;;;;;;;7.53;5.93;;;18.50;81.70;;;;;;10799652;33;20020;-77
2022/10/05 01:12:22;;;;;;;8.70;5.25;;;18.50;81.60;;;;;;10799194;33;20051;-77
2022/10/05 01:18:48;;;;;;;7.32;5.50;;;18.60;81.50;;;;;;10794909;33;20032;-78
2022/10/05 01:25:22;;;;;;;9.60;6.37;;;18.60;81.40;;;;;;10794737;33;20037;-78
2022/10/05 01:31:36;;;;;;;5.90;4.55;;;18.60;81.40;;;;;;10794485;33;20067;-77
2022/10/05 01:37:48;;;;;;;8.02;4.82;;;18.60;81.40;;;;;;10794922;33;20088;-77
2022/10/05 01:44:38;;;;;;;6.28;4.97;;;18.60;81.40;;;;;;10797773;33;20036;-78
2022/10/05 01:50:59;;;;;;;7.75;4.07;;;18.60;81.50;;;;;;10793666;33;20037;-79
2022/10/05 01:57:20;;;;;;;6.25;3.97;;;18.50;81.70;;;;;;10792460;33;20028;-78
2022/10/05 02:03:38;;;;;;;6.00;3.85;;;18.50;81.70;;;;;;10793358;33;20058;-78
2022/10/05 02:09:47;;;;;;;6.15;4.75;;;18.50;81.80;;;;;;10797138;33;20028;-78
2022/10/05 02:16:16;;;;;;;4.93;3.55;;;18.50;81.70;;;;;;10796993;33;20020;-78
2022/10/05 02:22:36;;;;;;;4.93;4.00;;;18.50;81.70;;;;;;10791710;33;20091;-78
2022/10/05 02:28:56;;;;;;;7.03;4.55;;;18.50;81.70;;;;;;10796971;33;20055;-78
2022/10/05 02:35:06;;;;;;;6.32;4.20;;;18.50;81.70;;;;;;10795558;33;20376;-78
2022/10/05 02:41:48;;;;;;;5.62;3.95;;;18.40;81.70;;;;;;10796241;33;20021;-78
2022/10/05 02:48:10;;;;;;;8.20;4.20;;;18.40;81.70;;;;;;10796045;33;20047;-78
2022/10/05 02:54:33;;;;;;;8.32;4.30;;;18.40;81.80;;;;;;10795258;32;20024;-78
2022/10/05 03:00:57;;;;;;;7.40;3.97;;;18.30;81.80;;;;;;10796891;33;20020;-77
2022/10/05 03:07:28;;;;;;;7.78;4.28;;;18.30;81.80;;;;;;10795160;33;20279;-79
2022/10/05 03:13:54;;;;;;;6.25;4.75;;;18.30;82.00;;;;;;10793414;33;20397;-78
2022/10/05 03:20:24;;;;;;;8.93;4.55;;;18.20;81.90;;;;;;10681686;33;20029;-78
2022/10/05 03:26:51;;;;;;;6.03;3.90;;;18.30;82.00;;;;;;10676700;33;20017;-78
2022/10/05 03:33:03;;;;;;;7.00;4.68;;;18.30;82.40;;;;;;10716721;33;20047;-78
2022/10/05 03:39:24;;;;;;;6.45;4.28;;;18.20;82.70;;;;;;10712565;33;20021;-78
2022/10/05 03:45:46;;;;;;;5.97;4.50;;;18.20;82.90;;;;;;10711543;33;20033;-78
2022/10/05 03:52:06;;;;;;;5.75;3.70;;;18.20;83.10;;;;;;10715151;33;20059;-78
2022/10/05 03:58:39;;;;;;;5.00;3.60;;;18.20;83.00;;;;;;10826381;33;20435;-77
2022/10/05 04:04:47;;;;;;;4.85;3.33;;;18.20;82.90;;;;;;10714157;33;20409;-77
2022/10/05 04:10:53;;;;;;;6.30;4.37;;;18.20;83.00;;;;;;10714684;33;20041;-78
2022/10/05 04:17:07;;;;;;;5.85;3.70;;;18.20;82.90;;;;;;10325633;33;12026703;-78
2022/10/05 04:23:26;;;;;;;6.15;4.37;;;18.20;82.90;;;;;;10681129;33;20158;-78
2022/10/05 04:29:44;;;;;;;6.12;4.20;;;18.20;83.00;;;;;;10679987;33;20377;-78
2022/10/05 04:36:00;;;;;;;5.50;3.60;;;18.20;83.00;;;;;;10678050;33;20029;-78
2022/10/05 04:42:29;;;;;;;4.28;3.08;;;18.20;83.00;;;;;;10808365;33;20024;-78
2022/10/05 04:48:45;;;;;;;16.42;4.20;;;18.20;83.10;;;;;;10829299;33;20024;-78
2022/10/05 04:54:51;;;;;;;6.12;4.62;;;18.20;83.10;;;;;;10829159;33;20055;-78
2022/10/05 05:01:16;;;;;;;4.37;3.47;;;18.10;83.10;;;;;;10829189;33;20024;-79
2022/10/05 05:07:46;;;;;;;6.22;3.35;;;18.10;83.00;;;;;;10829134;33;20047;-77
2022/10/05 05:14:14;;;;;;;6.62;3.12;;;18.10;83.00;;;;;;10828951;32;20028;-78
2022/10/05 05:20:20;;;;;;;4.70;3.08;;;18.10;83.00;;;;;;10835700;32;20058;-78
2022/10/05 05:26:33;;;;;;;6.30;3.37;;;18.00;83.30;;;;;;10835903;32;20024;-78
2022/10/05 05:32:39;;;;;;;5.12;3.92;;;18.10;83.30;;;;;;10835268;32;20341;-78
2022/10/05 05:39:00;;;;;;;3.58;2.75;;;18.00;83.40;;;;;;10835029;32;20051;-78
2022/10/05 05:45:19;;;;;;;4.87;3.30;;;18.10;83.40;;;;;;10830720;32;20397;-79
2022/10/05 05:51:33;;;;;;;7.57;3.65;;;18.10;83.50;;;;;;10835726;32;20343;-78
2022/10/05 05:57:53;;;;;;;4.35;3.42;;;18.10;83.50;;;;;;10835802;32;20047;-78
2022/10/05 06:04:08;;;;;;;5.30;3.20;;;18.20;83.50;;;;;;10810265;32;20392;-78
2022/10/05 06:10:51;;;;;;;8.13;3.80;;;18.20;83.50;;;;;;10796758;33;20447;-78
2022/10/05 06:17:11;;;;;;;6.12;3.47;;;18.20;83.50;;;;;;10791129;27;20051;-78
2022/10/05 06:23:39;;;;;;;13.32;3.75;;;18.20;83.40;;;;;;10792367;33;20043;-79
2022/10/05 06:30:05;;;;;;;5.57;3.55;;;18.20;83.60;;;;;;10788753;33;20024;-78
2022/10/05 06:36:16;;;;;;;6.70;4.07;;;18.20;83.40;;;;;;10796354;33;20016;-77
2022/10/05 06:43:38;;;;;;;4.32;2.65;;;18.30;83.40;;;;;;10796001;33;20021;-78
2022/10/05 06:49:59;;;;;;;;;;;18.30;83.30;;;;;;10610237;33;20049;-78
2022/10/05 06:56:21;;;;;;;6.93;3.40;;;18.30;83.40;;;;;;10610900;33;19929;-79
2022/10/05 07:03:04;;;;;;;2.83;2.37;;;18.30;83.50;;;;;;10597498;33;20041;-78
2022/10/05 07:09:10;;;;;;;6.35;3.45;;;18.30;83.40;;;;;;10555709;33;20305;-78
2022/10/05 07:15:38;;;;;;;4.32;2.67;;;18.40;83.40;;;;;;10535179;33;20065;-78
2022/10/05 07:22:05;;;;;;;4.75;2.92;;;18.40;83.20;;;;;;10539482;33;20038;-78
2022/10/05 07:28:12;;;;;;;9.32;3.53;;;18.50;83.20;;;;;;10575084;33;20339;-77
2022/10/05 07:34:23;;;;;;;4.35;3.20;;;18.40;83.30;;;;;;10574601;33;20053;-79
2022/10/05 07:40:42;;;;;;;7.45;4.22;;;18.40;83.30;;;;;;10575149;33;20057;-78
2022/10/05 07:47:00;;;;;;;7.53;3.60;;;18.50;83.20;;;;;;10735756;33;20341;-77
2022/10/05 07:53:13;;;;;;;4.50;3.15;;;18.50;83.30;;;;;;10757023;33;20024;-78
2022/10/05 07:59:44;;;;;;;6.47;3.53;;;18.60;83.30;;;;;;10756682;33;20337;-78
2022/10/05 08:05:47;;;;;;;6.80;4.37;;;18.60;83.10;;;;;;10756742;33;20063;-78
2022/10/05 08:11:52;;;;;;;5.68;3.47;;;18.70;83.10;;;;;;10753340;33;20067;-78
2022/10/05 08:18:02;;;;;;;7.62;3.33;;;18.70;83.20;;;;;;10770754;32;20048;-78
2022/10/05 08:24:17;;;;;;;4.97;3.40;;;18.70;83.10;;;;;;10752239;33;20017;-80
2022/10/05 08:30:19;;;;;;;7.82;3.72;;;18.80;83.00;;;;;;10752110;33;20098;-78
2022/10/05 08:36:48;;;;;;;6.30;3.35;;;18.90;82.90;;;;;;10756221;33;20024;-78
2022/10/05 08:43:29;;;;;;;5.37;4.15;;;18.90;82.90;;;;;;10756232;33;20039;-78
2022/10/05 08:49:49;;;;;;;7.32;4.25;;;18.90;82.80;;;;;;10676481;33;20055;-77
2022/10/05 08:56:17;;;;;;;15.38;5.20;;;19.00;82.80;;;;;;10653670;33;20445;-77
2022/10/05 09:02:31;;;;;;;7.87;3.95;;;19.00;82.60;;;;;;10650471;33;20369;-80
2022/10/05 09:09:01;;;;;;;7.18;4.10;;;19.20;82.50;;;;;;10667884;33;20037;-78
2022/10/05 09:15:03;;;;;;;;;;;19.20;82.50;;;;;;10681956;33;20029;-79
2022/10/05 09:21:22;;;;;;;5.37;3.70;;;19.20;82.60;;;;;;10686665;33;19933;-78
2022/10/05 09:27:36;;;;;;;7.18;4.37;;;19.20;82.50;;;;;;10787909;33;20321;-78
2022/10/05 09:33:56;;;;;;;5.15;3.35;;;19.30;82.50;;;;;;10798358;33;20032;-78
2022/10/05 09:40:46;;;;;;;5.40;3.47;;;19.30;82.20;;;;;;10794144;33;20063;-78
2022/10/05 09:47:06;;;;;;;5.53;4.07;;;19.40;82.00;;;;;;10781597;33;20397;-78
2022/10/05 09:53:28;;;;;;;8.65;4.87;;;19.50;81.90;;;;;;10797751;33;20024;-78
2022/10/05 09:59:45;;;;;;;6.85;5.45;;;19.50;81.80;;;;;;10793425;33;20060;-78
2022/10/05 10:06:01;;;;;;;6.07;4.07;;;19.60;81.50;;;;;;10780749;33;20029;-79
2022/10/05 10:12:44;;;;;;;5.30;3.20;;;19.70;81.40;;;;;;10760431;33;20331;-78
2022/10/05 10:19:04;;;;;;;6.97;4.12;;;19.80;81.20;;;;;;10760397;33;20041;-77
2022/10/05 10:25:45;;;;;;;6.43;3.45;;;19.90;80.80;;;;;;10760239;33;20021;-78
2022/10/05 10:32:18;;;;;;;4.70;3.53;;;20.10;80.50;;;;;;10759802;33;20330;-77
2022/10/05 10:38:39;;;;;;;10.10;3.35;;;20.30;80.10;;;;;;10755648;33;20060;-77
2022/10/05 10:44:54;;;;;;;5.03;3.50;;;20.40;79.80;;;;;;10759221;33;20025;-77
2022/10/05 10:51:38;;;;;;;7.57;3.83;;;20.60;79.60;;;;;;10755098;33;20041;-76
2022/10/05 10:58:02;;;;;;;5.85;4.37;;;20.60;79.40;;;;;;10754619;33;20076;-77
2022/10/05 11:04:16;;;;;;;8.15;4.22;;;20.70;78.90;;;;;;10758085;33;20055;-77
2022/10/05 11:10:50;;;;;;;6.45;3.05;;;20.80;78.80;;;;;;10753866;33;20055;-77
2022/10/05 11:17:22;;;;;;;3.45;2.95;;;20.90;78.30;;;;;;10757430;33;20024;-76
2022/10/05 11:23:53;;;;;;;6.97;4.25;;;21.00;78.20;;;;;;10757902;33;20398;-77
2022/10/05 11:30:27;;;;;;;6.03;3.65;;;21.10;77.90;;;;;;10677381;33;20060;-79
2022/10/05 11:37:17;;;;;;;4.32;2.58;;;21.10;77.60;;;;;;10680933;33;20055;-79
2022/10/05 11:43:38;;;;;;;5.28;3.00;;;21.10;77.60;;;;;;10675076;33;20060;-79
2022/10/05 11:50:04;;;;;;;2.78;1.95;;;21.30;77.40;;;;;;10676749;33;20311;-77
2022/10/05 11:56:36;;;;;;;5.03;2.22;;;21.30;77.20;;;;;;10680745;33;20028;-76
2022/10/05 12:03:14;;;;;;;4.97;2.78;;;21.50;76.60;;;;;;10609786;33;20161;-78
2022/10/05 12:10:12;;;;;;;3.47;2.20;;;21.80;75.70;;;;;;10713858;33;20383;-76
2022/10/05 12:16:11;;;;;;;3.42;1.90;;;21.80;74.80;;;;;;10712323;33;20327;-76
2022/10/05 12:22:18;;;;;;;4.12;2.78;;;21.80;74.90;;;;;;10716559;33;20051;-76
2022/10/05 12:28:48;;;;;;;6.80;3.03;;;21.80;74.60;;;;;;10729872;33;20361;-78
2022/10/05 12:34:53;;;;;;;7.37;2.35;;;21.80;74.40;;;;;;10748119;33;20460;-77
2022/10/05 12:41:03;;;;;;;6.18;3.17;;;21.80;74.00;;;;;;10759763;33;20349;-76
2022/10/05 12:48:02;;;;;;;5.55;3.22;;;21.80;73.80;;;;;;10759478;33;20052;-76
2022/10/05 12:54:10;;;;;;;4.78;1.98;;;21.80;73.80;;;;;;10716543;33;20432;-77
2022/10/05 13:00:16;;;;;;;7.15;3.40;;;21.90;74.00;;;;;;10722980;33;20426;-77
2022/10/05 13:07:06;;;;;;;6.45;3.25;;;21.90;74.00;;;;;;10718462;33;20028;-77
2022/10/05 13:13:32;;;;;;;5.05;3.70;;;22.00;74.10;;;;;;10722431;33;20063;-79
2022/10/05 13:20:23;;;;;;;6.35;3.85;;;22.00;73.90;;;;;;10686116;33;20033;-78
2022/10/05 13:26:33;;;;;;;4.55;3.62;;;22.00;73.90;;;;;;10748193;33;20345;-78
2022/10/05 13:33:01;;;;;;;5.50;3.25;;;22.10;74.00;;;;;;10756998;33;20051;-79
2022/10/05 13:39:47;;;;;;;5.60;2.83;;;22.10;74.10;;;;;;10757409;33;20074;-78
2022/10/05 13:45:57;;;;;;;5.40;3.25;;;22.00;74.20;;;;;;10609147;33;20049;-78
2022/10/05 13:52:25;;;;;;;5.05;3.60;;;22.00;74.20;;;;;;10613215;33;20041;-78
2022/10/05 13:59:04;;;;;;;5.53;3.10;;;22.00;74.20;;;;;;10609067;33;20080;-78
2022/10/05 14:05:17;;;;;;;5.57;3.30;;;21.90;74.40;;;;;;10613834;33;20061;-78
2022/10/05 14:11:21;;;;;;;4.60;2.78;;;21.90;74.40;;;;;;10612732;33;20312;-77
2022/10/05 14:17:26;;;;;;;4.72;2.90;;;22.00;74.40;;;;;;10711574;28;20071;-77
2022/10/05 14:23:28;;;;;;;4.75;2.70;;;22.00;74.30;;;;;;10861290;32;20028;-78
2022/10/05 14:29:36;;;;;;;6.87;2.95;;;22.00;74.30;;;;;;10857184;32;20069;-78
2022/10/05 14:35:45;;;;;;;4.75;1.98;;;22.00;74.30;;;;;;10848531;32;20062;-77
2022/10/05 14:41:49;;;;;;;6.87;2.42;;;22.00;74.40;;;;;;10870085;32;20392;-77
2022/10/05 14:47:59;;;;;;;3.22;1.65;;;22.00;74.30;;;;;;10862161;32;20071;-77
2022/10/05 14:54:13;;;;;;;3.70;2.45;;;22.00;74.30;;;;;;10869933;32;20063;-77
2022/10/05 15:00:17;;;;;;;3.33;2.00;;;22.00;74.40;;;;;;10863094;32;20058;-77
2022/10/05 15:06:31;;;;;;;5.40;1.92;;;22.10;74.30;;;;;;10865940;32;20032;-77
2022/10/05 15:12:38;;;;;;;4.07;2.15;;;22.00;74.40;;;;;;10864803;32;20054;-77
2022/10/05 15:19:15;;;;;;;2.75;1.40;;;22.00;74.40;;;;;;10868949;32;20055;-77
2022/10/05 15:25:21;;;;;;;2.75;1.60;;;21.90;74.60;;;;;;10851394;32;20061;-77
2022/10/05 15:31:58;;;;;;;4.28;1.98;;;21.90;74.80;;;;;;10868667;32;20047;-78
2022/10/05 15:38:08;;;;;;;3.58;2.53;;;21.80;74.90;;;;;;10865620;32;20039;-77
2022/10/05 15:44:32;;;;;;;7.70;4.25;;;21.80;75.00;;;;;;10863973;32;20169;-77
2022/10/05 15:51:01;;;;;;;2.90;2.47;;;21.70;75.00;;;;;;10867461;32;20074;-78
2022/10/05 15:57:27;;;;;;;4.07;1.62;;;21.70;75.30;;;;;;10788454;33;20024;-78
2022/10/05 16:03:40;;;;;;;1.95;1.40;;;21.80;75.20;;;;;;10784674;33;20060;-77
2022/10/05 16:10:15;;;;;;;4.45;2.22;;;21.80;75.30;;;;;;10762295;33;20056;-78
2022/10/05 16:16:30;;;;;;;2.05;1.48;;;21.70;75.30;;;;;;10752525;33;20063;-77
2022/10/05 16:22:42;;;;;;;2.67;1.62;;;21.60;75.50;;;;;;10752795;33;20028;-78
2022/10/05 16:29:03;;;;;;;4.37;2.40;;;21.50;75.60;;;;;;10748322;33;20041;-78
2022/10/05 16:35:29;;;;;;;3.80;1.33;;;21.40;75.80;;;;;;10829918;33;20020;-78
2022/10/05 16:42:19;;;;;;;2.72;1.45;;;21.30;76.00;;;;;;10753448;33;20484;-78
2022/10/05 16:48:51;;;;;;;3.33;1.80;;;21.30;76.20;;;;;;10716468;33;20055;-78
2022/10/05 16:55:11;;;;;;;5.45;1.23;;;21.10;76.40;;;;;;10605273;33;20109;-78
2022/10/05 17:01:27;;;;;;;2.65;1.25;;;21.10;76.60;;;;;;10608063;33;20052;-78
2022/10/05 17:07:35;;;;;;;2.30;1.65;;;21.00;76.80;;;;;;10592086;33;20053;-78
2022/10/05 17:13:51;;;;;;;1.85;1.67;;;20.90;76.90;;;;;;10608986;33;20045;-78
2022/10/05 17:20:16;;;;;;;2.20;1.50;;;20.80;77.00;;;;;;10651157;33;20076;-78
2022/10/05 17:26:55;;;;;;;3.95;1.70;;;20.80;77.10;;;;;;10686891;33;20395;-78
2022/10/05 17:33:03;;;;;;;2.85;1.90;;;20.70;77.20;;;;;;10834625;32;20036;-78
2022/10/05 17:39:45;;;;;;;4.35;2.15;;;20.60;77.40;;;;;;10834465;32;20031;-78
2022/10/05 17:45:51;;;;;;;5.95;2.78;;;20.50;77.40;;;;;;10758334;33;20056;-77
2022/10/05 17:58:23;;;;;;;4.12;2.58;;;20.40;77.70;;;;;;10757363;33;20397;-78
2022/10/05 18:04:29;;;;;;;4.37;2.40;;;20.40;77.90;;;;;;10756589;33;20033;-77
2022/10/05 18:10:32;;;;;;;6.18;3.05;;;20.30;78.00;;;;;;10753117;33;20405;-77
2022/10/05 18:16:58;;;;;;;5.93;3.85;;;20.30;78.10;;;;;;10755971;33;20021;-77
2022/10/05 18:23:08;;;;;;;4.15;2.95;;;20.30;78.20;;;;;;10823208;33;20050;-77
2022/10/05 18:35:56;;;;;;;7.10;3.17;;;20.20;78.40;;;;;;10832660;32;20035;-76
2022/10/05 18:42:39;;;;;;;5.45;3.37;;;20.10;78.40;;;;;;10832354;32;20032;-76
2022/10/05 18:48:58;;;;;;;5.72;3.12;;;20.00;78.50;;;;;;10831221;32;20059;-76
2022/10/05 18:55:12;;;;;;;5.63;3.63;;;20.00;78.60;;;;;;10828242;32;20051;-76
2022/10/05 19:01:33;;;;;;;6.18;3.55;;;20.00;78.70;;;;;;10832937;32;20019;-76
2022/10/05 19:07:39;;;;;;;5.82;2.75;;;19.90;78.70;;;;;;10830788;32;20020;-77
2022/10/05 19:14:27;;;;;;;11.45;3.75;;;19.90;79.00;;;;;;10829170;32;20027;-77
2022/10/05 19:20:38;;;;;;;5.53;3.97;;;19.90;79.50;;;;;;10754756;33;20425;-77
2022/10/05 19:27:13;;;;;;;7.20;4.43;;;19.80;79.50;;;;;;10749486;33;20016;-76
2022/10/05 19:33:37;;;;;;;4.45;3.00;;;19.90;79.40;;;;;;10714640;33;20057;-77
2022/10/05 19:40:08;;;;;;;7.80;4.78;;;19.80;79.40;;;;;;10716484;33;20498;-77
2022/10/05 19:46:10;;;;;;;7.10;4.28;;;19.80;79.50;;;;;;10714779;33;20048;-76
2022/10/05 19:52:23;;;;;;;7.30;4.43;;;19.70;79.60;;;;;;10716658;33;20039;-77
2022/10/05 19:58:59;;;;;;;9.77;5.55;;;19.60;79.70;;;;;;10789893;32;20368;-76
2022/10/05 20:05:06;;;;;;;19.58;9.43;;;19.60;79.80;;;;;;10789019;33;20051;-77
2022/10/05 20:11:14;;;;;;;20.27;12.68;;;19.50;79.80;;;;;;10818103;32;20024;-77
2022/10/05 20:24:05;;;;;;;22.10;14.25;;;19.50;80.00;;;;;;10829987;32;20039;-77
2022/10/05 20:30:12;;;;;;;18.75;13.05;;;19.50;80.00;;;;;;10825637;33;20028;-76
2022/10/05 20:36:14;;;;;;;10.55;7.78;;;19.40;80.00;;;;;;10824595;33;20384;-77
2022/10/05 20:42:27;;;;;;;15.65;8.65;;;19.40;80.10;;;;;;10829384;33;20023;-76
2022/10/05 20:48:29;;;;;;;14.50;8.80;;;19.30;80.20;;;;;;10830525;32;20385;-76
2022/10/05 20:54:31;;;;;;;11.32;8.80;;;19.30;80.20;;;;;;10836694;32;20505;-76
2022/10/05 21:06:54;;;;;;;9.95;7.40;;;19.30;80.30;;;;;;10832285;33;20047;-77
2022/10/05 21:12:56;;;;;;;12.20;8.27;;;19.30;80.30;;;;;;10835364;32;20344;-77
2022/10/05 21:18:58;;;;;;;11.23;8.70;;;19.30;80.30;;;;;;10836217;32;20024;-76
2022/10/05 21:25:01;;;;;;;11.00;8.90;;;19.30;80.30;;;;;;10835719;32;20020;-79
2022/10/05 21:31:12;;;;;;;9.35;7.70;;;19.30;80.30;;;;;;10835463;32;20023;-77
2022/10/05 21:37:14;;;;;;;10.15;7.80;;;19.30;80.40;;;;;;10834629;32;20020;-76
2022/10/05 21:43:16;;;;;;;12.43;8.32;;;19.30;80.40;;;;;;10835303;32;20353;-77
2022/10/05 21:49:19;;;;;;;11.80;8.93;;;19.30;80.30;;;;;;10834942;32;20332;-77
2022/10/05 21:55:21;;;;;;;8.18;6.22;;;19.40;80.40;;;;;;10833786;32;20024;-76
2022/10/05 22:01:23;;;;;;;10.75;7.82;;;19.40;80.40;;;;;;10834069;32;20028;-79
2022/10/05 22:07:24;;;;;;;8.70;6.93;;;19.40;80.40;;;;;;10831689;32;20032;-76
2022/10/05 22:13:40;;;;;;;9.57;7.50;;;19.50;80.60;;;;;;10838442;27;20330;-77
2022/10/05 22:19:42;;;;;;;12.48;9.38;;;19.40;80.70;;;;;;10833818;32;20443;-77
2022/10/05 22:25:45;;;;;;;11.50;7.87;;;19.50;80.80;;;;;;10833862;32;20440;-77
2022/10/05 22:31:47;;;;;;;11.95;8.27;;;19.50;80.80;;;;;;10829418;32;20040;-76
2022/10/05 22:37:49;;;;;;;12.55;7.70;;;19.50;80.70;;;;;;10829111;33;20042;-76
2022/10/05 22:43:51;;;;;;;9.57;7.53;;;19.40;80.70;;;;;;10819861;32;20028;-76
2022/10/05 22:49:54;;;;;;;9.98;7.55;;;19.30;80.70;;;;;;10832832;32;20401;-76
2022/10/05 22:55:56;;;;;;;10.38;8.18;;;19.30;80.70;;;;;;10832408;32;20040;-76
2022/10/05 23:01:58;;;;;;;10.45;6.75;;;19.30;80.70;;;;;;10830343;32;20032;-76
2022/10/05 23:08:09;;;;;;;9.43;6.35;;;19.30;80.70;;;;;;10814813;33;20062;-77
2022/10/05 23:14:11;;;;;;;7.70;5.35;;;19.30;80.60;;;;;;10831284;32;20435;-77
2022/10/05 23:20:14;;;;;;;10.10;7.47;;;19.30;80.60;;;;;;10831880;32;20020;-77
2022/10/05 23:26:19;;;;;;;8.98;6.05;;;19.30;80.70;;;;;;10831634;32;20051;-77
2022/10/05 23:32:21;;;;;;;9.93;5.70;;;19.30;80.60;;;;;;10826996;33;20032;-77
2022/10/05 23:38:23;;;;;;;13.43;6.47;;;19.30;80.70;;;;;;10831863;32;20042;-77
2022/10/05 23:44:25;;;;;;;7.62;5.87;;;19.30;80.70;;;;;;10831059;32;20070;-76
2022/10/05 23:50:27;;;;;;;7.97;5.47;;;19.30;80.70;;;;;;10830730;32;20028;-77
2022/10/05 23:56:29;;;;;;;16.75;6.97;;;19.30;80.70;;;;;;10830665;32;20046;-77
